createdAt,value
2019-05-22T00:00:47.582Z,49.90
2019-05-22T00:01:47.588Z,47.80
2019-05-22T00:02:47.599Z,50.20
2019-05-22T00:03:47.608Z,49.40
2019-05-22T00:04:47.611Z,44.10
2019-05-22T00:05:47.626Z,50.50
2019-05-22T00:06:47.647Z,48.60
2019-05-22T00:07:47.786Z,50.00
2019-05-22T00:08:47.643Z,42.40
2019-05-22T00:09:47.652Z,48.40
2019-05-22T00:10:47.662Z,45.00
2019-05-22T00:11:47.666Z,50.00
2019-05-22T00:12:47.669Z,46.10
2019-05-22T00:13:47.681Z,45.00
2019-05-22T00:14:47.684Z,47.90
2019-05-22T00:15:47.691Z,47.50
2019-05-22T00:16:47.705Z,43.60
2019-05-22T00:17:47.817Z,43.20
2019-05-22T00:18:47.715Z,40.70
2019-05-22T00:19:47.728Z,40.80
2019-05-22T00:20:47.751Z,32.60
2019-05-22T00:21:47.733Z,39.40
2019-05-22T00:22:47.749Z,40.10
2019-05-22T00:23:47.765Z,39.40
2019-05-22T00:24:47.765Z,37.60
2019-05-22T00:25:47.766Z,40.50
2019-05-22T00:26:47.777Z,44.10
2019-05-22T00:27:47.785Z,41.60
2019-05-22T00:28:47.788Z,41.30
2019-05-22T00:29:47.820Z,41.70
2019-05-22T00:30:47.794Z,43.60
2019-05-22T00:31:47.802Z,39.50
2019-05-22T00:32:47.822Z,42.00
2019-05-22T00:33:47.830Z,40.30
2019-05-22T00:34:47.836Z,38.80
2019-05-22T00:35:47.854Z,37.30
2019-05-22T00:36:47.849Z,36.40
2019-05-22T00:37:47.863Z,36.90
2019-05-22T00:38:47.857Z,38.70
2019-05-22T00:39:47.876Z,41.80
2019-05-22T00:40:47.893Z,37.60
2019-05-22T00:41:47.893Z,39.20
2019-05-22T00:43:02.874Z,38.60
2019-05-22T00:43:47.907Z,40.20
2019-05-22T00:44:47.922Z,33.30
2019-05-22T00:45:47.909Z,37.40
2019-05-22T00:46:47.919Z,33.00
2019-05-22T00:47:47.932Z,33.00
2019-05-22T00:48:47.934Z,30.20
2019-05-22T00:49:47.943Z,31.90
2019-05-22T00:50:47.955Z,29.20
2019-05-22T00:51:47.964Z,33.40
2019-05-22T00:52:47.970Z,30.60
2019-05-22T00:53:47.987Z,32.20
2019-05-22T00:54:47.982Z,29.70
2019-05-22T00:55:48.010Z,32.90
2019-05-22T00:56:47.996Z,29.40
2019-05-22T00:57:48.007Z,33.20
2019-05-22T00:58:48.017Z,29.60
2019-05-22T00:59:48.019Z,29.50
2019-05-22T01:00:48.031Z,31.40
2019-05-22T01:01:48.031Z,29.20
2019-05-22T01:02:48.043Z,30.70
2019-05-22T01:03:48.048Z,31.10
2019-05-22T01:04:48.060Z,28.60
2019-05-22T01:05:48.068Z,30.80
2019-05-22T01:06:48.082Z,28.50
2019-05-22T01:07:48.078Z,29.00
2019-05-22T01:08:48.086Z,29.90
2019-05-22T01:09:48.096Z,31.20
2019-05-22T01:10:48.098Z,28.00
2019-05-22T01:11:48.176Z,28.10
2019-05-22T01:12:48.107Z,27.70
2019-05-22T01:13:48.132Z,28.60
2019-05-22T01:14:48.132Z,28.00
2019-05-22T01:15:48.137Z,24.20
2019-05-22T01:16:48.160Z,27.60
2019-05-22T01:17:48.156Z,28.50
2019-05-22T01:18:48.161Z,27.30
2019-05-22T01:19:48.163Z,24.50
2019-05-22T01:20:48.175Z,28.60
2019-05-22T01:21:48.185Z,23.90
2019-05-22T01:22:48.202Z,26.00
2019-05-22T01:23:48.195Z,22.90
2019-05-22T01:24:48.217Z,27.80
2019-05-22T01:25:48.224Z,24.70
2019-05-22T01:26:48.297Z,26.80
2019-05-22T01:27:48.240Z,26.30
2019-05-22T01:28:48.226Z,26.90
2019-05-22T01:29:48.247Z,26.60
2019-05-22T01:30:48.248Z,26.50
2019-05-22T01:31:48.268Z,25.40
2019-05-22T01:32:48.269Z,26.10
2019-05-22T01:33:48.264Z,28.30
2019-05-22T01:34:48.287Z,26.10
2019-05-22T01:35:48.275Z,24.90
2019-05-22T01:36:48.285Z,22.90
2019-05-22T01:37:48.312Z,27.50
2019-05-22T01:38:48.306Z,29.60
2019-05-22T01:39:48.371Z,22.10
2019-05-22T01:40:48.318Z,26.80
2019-05-22T01:41:48.332Z,22.60
2019-05-22T01:42:48.330Z,26.20
2019-05-22T01:43:48.337Z,24.30
2019-05-22T01:45:01.630Z,23.80
2019-05-22T01:45:48.360Z,23.20
2019-05-22T01:46:48.365Z,26.00
2019-05-22T01:47:48.378Z,21.60
2019-05-22T01:48:48.384Z,24.70
2019-05-22T01:49:48.496Z,20.80
2019-05-22T01:50:48.393Z,25.10
2019-05-22T01:51:48.400Z,24.70
2019-05-22T01:52:48.413Z,26.30
2019-05-22T01:53:48.417Z,21.30
2019-05-22T01:54:48.425Z,24.50
2019-05-22T01:55:48.428Z,25.40
2019-05-22T01:56:48.448Z,25.00
2019-05-22T01:57:48.451Z,25.30
2019-05-22T01:58:48.452Z,22.10
2019-05-22T01:59:48.579Z,24.40
2019-05-22T02:00:48.464Z,21.10
2019-05-22T02:01:48.522Z,23.40
2019-05-22T02:02:48.476Z,20.60
2019-05-22T02:03:48.492Z,20.50
2019-05-22T02:04:48.489Z,22.00
2019-05-22T02:05:48.506Z,27.90
2019-05-22T02:06:48.511Z,27.10
2019-05-22T02:07:48.521Z,24.10
2019-05-22T02:08:48.522Z,20.80
2019-05-22T02:09:48.541Z,25.20
2019-05-22T02:10:48.541Z,24.60
2019-05-22T02:11:48.547Z,22.00
2019-05-22T02:12:48.552Z,25.30
2019-05-22T02:13:48.562Z,26.40
2019-05-22T02:14:48.571Z,21.70
2019-05-22T02:15:48.572Z,24.40
2019-05-22T02:16:56.665Z,24.30
2019-05-22T02:17:48.694Z,24.30
2019-05-22T02:18:48.588Z,23.50
2019-05-22T02:19:48.615Z,22.60
2019-05-22T02:20:49.594Z,24.40
2019-05-22T02:21:48.621Z,24.00
2019-05-22T02:22:48.630Z,22.80
2019-05-22T02:23:48.633Z,21.00
2019-05-22T02:24:48.637Z,22.00
2019-05-22T02:25:48.644Z,24.50
2019-05-22T02:26:48.663Z,23.50
2019-05-22T02:27:48.689Z,23.40
2019-05-22T02:28:48.671Z,21.10
2019-05-22T02:29:48.677Z,23.30
2019-05-22T02:30:48.688Z,25.40
2019-05-22T02:31:48.700Z,26.70
2019-05-22T02:32:48.699Z,22.20
2019-05-22T02:33:48.704Z,25.10
2019-05-22T02:34:48.717Z,22.00
2019-05-22T02:35:48.721Z,23.30
2019-05-22T02:36:48.727Z,23.30
2019-05-22T02:37:48.733Z,21.70
2019-05-22T02:38:48.744Z,20.80
2019-05-22T02:39:48.747Z,23.80
2019-05-22T02:40:48.740Z,21.90
2019-05-22T02:41:48.767Z,26.10
2019-05-22T02:42:48.773Z,23.30
2019-05-22T02:43:48.785Z,20.50
2019-05-22T02:44:48.828Z,24.70
2019-05-22T02:45:48.791Z,22.30
2019-05-22T02:46:48.800Z,22.00
2019-05-22T02:47:48.805Z,23.30
2019-05-22T02:48:48.812Z,24.20
2019-05-22T02:49:48.822Z,23.60
2019-05-22T02:50:48.884Z,23.10
2019-05-22T02:51:48.836Z,22.40
2019-05-22T02:52:48.841Z,20.90
2019-05-22T02:53:48.883Z,20.90
2019-05-22T02:54:48.858Z,21.80
2019-05-22T02:55:48.895Z,21.90
2019-05-22T02:56:48.868Z,22.50
2019-05-22T02:57:48.878Z,20.30
2019-05-22T02:58:48.886Z,22.80
2019-05-22T02:59:48.896Z,22.00
2019-05-22T03:00:48.893Z,23.30
2019-05-22T03:01:48.903Z,20.90
2019-05-22T03:02:48.909Z,23.20
2019-05-22T03:03:48.914Z,25.30
2019-05-22T03:04:48.930Z,23.40
2019-05-22T03:05:49.014Z,22.00
2019-05-22T03:06:48.951Z,25.40
2019-05-22T03:07:48.948Z,20.20
2019-05-22T03:08:48.953Z,22.50
2019-05-22T03:09:48.959Z,21.50
2019-05-22T03:10:48.972Z,21.70
2019-05-22T03:11:48.980Z,19.80
2019-05-22T03:12:48.993Z,17.90
2019-05-22T03:13:48.995Z,21.20
2019-05-22T03:14:49.051Z,18.50
2019-05-22T03:15:49.002Z,19.40
2019-05-22T03:16:49.012Z,21.20
2019-05-22T03:17:49.014Z,16.40
2019-05-22T03:19:07.598Z,16.20
2019-05-22T03:19:49.052Z,15.50
2019-05-22T03:20:49.116Z,15.20
2019-05-22T03:21:49.049Z,13.20
2019-05-22T03:22:49.050Z,12.20
2019-05-22T03:23:49.059Z,14.10
2019-05-22T03:24:49.071Z,11.80
2019-05-22T03:25:49.077Z,11.00
2019-05-22T03:26:49.079Z,9.80
2019-05-22T03:27:49.101Z,11.30
2019-05-22T03:28:49.110Z,11.20
2019-05-22T03:29:49.101Z,10.30
2019-05-22T03:30:49.115Z,15.30
2019-05-22T03:31:49.118Z,11.20
2019-05-22T03:32:49.130Z,14.00
2019-05-22T03:33:49.131Z,10.60
2019-05-22T03:34:49.138Z,10.50
2019-05-22T03:35:49.164Z,10.50
2019-05-22T03:36:49.154Z,11.70
2019-05-22T03:37:49.158Z,10.30
2019-05-22T03:38:49.168Z,11.40
2019-05-22T03:39:49.173Z,13.80
2019-05-22T03:40:49.182Z,12.00
2019-05-22T03:41:49.209Z,10.50
2019-05-22T03:42:49.196Z,10.30
2019-05-22T03:43:49.202Z,10.10
2019-05-22T03:44:49.210Z,9.70
2019-05-22T03:45:49.218Z,11.70
2019-05-22T03:46:49.217Z,11.20
2019-05-22T03:47:49.230Z,10.50
2019-05-22T03:48:49.250Z,8.90
2019-05-22T03:49:49.241Z,8.60
2019-05-22T03:50:49.252Z,9.40
2019-05-22T03:51:49.252Z,8.20
2019-05-22T03:52:49.268Z,6.60
2019-05-22T03:53:49.267Z,7.10
2019-05-22T03:54:49.281Z,8.40
2019-05-22T03:55:49.292Z,6.90
2019-05-22T03:56:49.352Z,8.10
2019-05-22T03:57:49.300Z,7.40
2019-05-22T03:58:49.316Z,8.30
2019-05-22T03:59:49.321Z,8.30
2019-05-22T04:00:49.313Z,6.00
2019-05-22T04:01:49.322Z,8.40
2019-05-22T04:02:49.331Z,7.90
2019-05-22T04:03:49.338Z,7.20
2019-05-22T04:04:49.357Z,7.20
2019-05-22T04:05:49.364Z,6.60
2019-05-22T04:06:49.351Z,9.60
2019-05-22T04:07:49.369Z,7.50
2019-05-22T04:08:49.381Z,6.50
2019-05-22T04:09:49.380Z,7.30
2019-05-22T04:10:49.387Z,6.70
2019-05-22T04:11:49.397Z,8.40
2019-05-22T04:12:49.406Z,7.80
2019-05-22T04:13:49.415Z,11.30
2019-05-22T04:14:49.434Z,7.60
2019-05-22T04:15:49.425Z,9.60
2019-05-22T04:16:49.436Z,8.60
2019-05-22T04:17:49.438Z,6.80
2019-05-22T04:18:49.436Z,9.40
2019-05-22T04:19:51.661Z,7.40
2019-05-22T04:20:49.459Z,7.30
2019-05-22T04:21:49.467Z,8.10
2019-05-22T04:22:49.470Z,7.80
2019-05-22T04:23:49.480Z,7.30
2019-05-22T04:24:49.489Z,6.30
2019-05-22T04:25:53.162Z,8.20
2019-05-22T04:26:49.497Z,11.10
2019-05-22T04:27:49.510Z,8.20
2019-05-22T04:28:49.513Z,8.40
2019-05-22T04:29:49.565Z,8.20
2019-05-22T04:30:49.546Z,8.10
2019-05-22T04:31:49.540Z,8.60
2019-05-22T04:32:49.541Z,6.90
2019-05-22T04:33:49.554Z,7.50
2019-05-22T04:34:49.559Z,6.80
2019-05-22T04:35:49.562Z,8.80
2019-05-22T04:36:49.572Z,7.70
2019-05-22T04:37:49.582Z,7.70
2019-05-22T04:38:49.584Z,7.10
2019-05-22T04:39:49.584Z,8.30
2019-05-22T04:40:49.625Z,9.50
2019-05-22T04:41:49.602Z,6.70
2019-05-22T04:42:49.618Z,7.80
2019-05-22T04:43:49.628Z,9.30
2019-05-22T04:44:49.634Z,7.00
2019-05-22T04:45:49.635Z,8.40
2019-05-22T04:46:49.639Z,6.20
2019-05-22T04:47:49.650Z,9.00
2019-05-22T04:48:49.651Z,7.30
2019-05-22T04:50:06.213Z,9.00
2019-05-22T04:50:49.683Z,10.00
2019-05-22T04:51:49.675Z,10.70
2019-05-22T04:52:49.680Z,9.50
2019-05-22T04:53:49.689Z,9.90
2019-05-22T04:54:52.496Z,9.20
2019-05-22T04:55:49.702Z,10.00
2019-05-22T04:56:49.720Z,8.10
2019-05-22T04:57:49.721Z,7.70
2019-05-22T04:58:49.719Z,12.20
2019-05-22T04:59:49.729Z,10.20
2019-05-22T05:00:49.734Z,14.10
2019-05-22T05:01:49.741Z,10.20
2019-05-22T05:02:49.753Z,10.80
2019-05-22T05:03:49.747Z,13.30
2019-05-22T05:04:49.772Z,10.80
2019-05-22T05:05:49.776Z,10.40
2019-05-22T05:06:49.891Z,10.30
2019-05-22T05:07:49.776Z,11.00
2019-05-22T05:08:49.795Z,12.90
2019-05-22T05:09:49.798Z,10.20
2019-05-22T05:10:49.850Z,8.60
2019-05-22T05:11:49.811Z,8.10
2019-05-22T05:12:49.821Z,10.70
2019-05-22T05:13:49.821Z,11.10
2019-05-22T05:14:49.841Z,7.30
2019-05-22T05:15:49.839Z,10.80
2019-05-22T05:16:49.846Z,10.70
2019-05-22T05:17:49.856Z,9.80
2019-05-22T05:18:49.863Z,9.80
2019-05-22T05:19:49.875Z,9.10
2019-05-22T05:20:49.932Z,9.40
2019-05-22T05:21:49.889Z,10.10
2019-05-22T05:22:49.892Z,10.20
2019-05-22T05:23:49.911Z,60.90
2019-05-22T05:24:49.897Z,14.90
2019-05-22T05:25:49.914Z,11.60
2019-05-22T05:26:49.921Z,11.70
2019-05-22T05:27:49.932Z,10.60
2019-05-22T05:28:49.944Z,12.90
2019-05-22T05:29:49.942Z,10.50
2019-05-22T05:30:49.953Z,11.20
2019-05-22T05:31:49.949Z,10.70
2019-05-22T05:32:49.962Z,10.00
2019-05-22T05:33:49.969Z,12.10
2019-05-22T05:34:49.975Z,10.60
2019-05-22T05:35:49.984Z,11.40
2019-05-22T05:36:49.992Z,8.70
2019-05-22T05:37:49.996Z,11.20
2019-05-22T05:38:49.989Z,12.30
2019-05-22T05:39:50.011Z,12.70
2019-05-22T05:40:50.018Z,12.90
2019-05-22T05:41:50.018Z,10.10
2019-05-22T05:42:50.032Z,15.00
2019-05-22T05:43:50.032Z,10.10
2019-05-22T05:44:50.045Z,9.70
2019-05-22T05:45:50.056Z,10.30
2019-05-22T05:46:50.057Z,10.90
2019-05-22T05:47:50.065Z,12.10
2019-05-22T05:48:50.073Z,9.30
2019-05-22T05:49:50.074Z,14.80
2019-05-22T05:50:50.095Z,11.80
2019-05-22T05:51:50.086Z,10.80
2019-05-22T05:52:50.102Z,9.40
2019-05-22T05:53:50.105Z,8.50
2019-05-22T05:54:50.117Z,10.10
2019-05-22T05:55:50.124Z,12.30
2019-05-22T05:56:50.133Z,10.00
2019-05-22T05:57:50.137Z,9.50
2019-05-22T05:58:50.150Z,11.50
2019-05-22T05:59:50.154Z,10.20
2019-05-22T06:00:50.167Z,9.90
2019-05-22T06:01:50.176Z,9.70
2019-05-22T06:02:56.637Z,7.80
2019-05-22T06:03:50.178Z,9.90
2019-05-22T06:04:50.186Z,10.40
2019-05-22T06:05:50.197Z,9.60
2019-05-22T06:06:50.207Z,9.70
2019-05-22T06:07:50.205Z,7.60
2019-05-22T06:08:50.220Z,9.20
2019-05-22T06:09:50.221Z,10.40
2019-05-22T06:10:50.242Z,7.80
2019-05-22T06:11:50.295Z,10.20
2019-05-22T06:12:50.269Z,9.70
2019-05-22T06:13:50.252Z,9.00
2019-05-22T06:14:50.267Z,7.80
2019-05-22T06:15:50.284Z,9.20
2019-05-22T06:16:50.279Z,9.50
2019-05-22T06:17:50.281Z,11.30
2019-05-22T06:18:50.290Z,7.50
2019-05-22T06:19:50.303Z,9.10
2019-05-22T06:21:03.259Z,11.20
2019-05-22T06:21:50.312Z,8.10
2019-05-22T06:22:50.321Z,9.90
2019-05-22T06:23:50.327Z,9.10
2019-05-22T06:24:50.337Z,8.80
2019-05-22T06:25:50.343Z,7.20
2019-05-22T06:26:50.365Z,8.10
2019-05-22T06:27:50.371Z,12.10
2019-05-22T06:28:50.366Z,8.60
2019-05-22T06:29:50.367Z,6.40
2019-05-22T06:31:50.393Z,8.50
2019-05-22T06:32:50.396Z,7.90
2019-05-22T06:33:50.402Z,7.70
2019-05-22T06:34:50.414Z,6.30
2019-05-22T06:35:50.435Z,10.00
2019-05-22T06:36:50.434Z,8.50
2019-05-22T06:37:50.437Z,7.50
2019-05-22T06:38:50.446Z,9.00
2019-05-22T06:39:50.504Z,16.30
2019-05-22T06:40:50.463Z,9.50
2019-05-22T06:41:50.530Z,7.90
2019-05-22T06:42:50.478Z,8.90
2019-05-22T06:43:50.494Z,9.30
2019-05-22T06:44:50.495Z,9.00
2019-05-22T06:45:50.500Z,9.90
2019-05-22T06:46:50.502Z,8.90
2019-05-22T06:47:50.521Z,7.90
2019-05-22T06:48:50.529Z,8.70
2019-05-22T06:49:50.668Z,9.20
2019-05-22T06:50:50.540Z,6.50
2019-05-22T06:51:50.605Z,6.50
2019-05-22T06:52:50.643Z,6.50
2019-05-22T06:53:50.669Z,6.20
2019-05-22T06:54:50.844Z,6.00
2019-05-22T06:55:50.584Z,6.50
2019-05-22T06:56:50.642Z,10.20
2019-05-22T06:57:50.631Z,6.70
2019-05-22T06:58:50.684Z,5.90
2019-05-22T07:00:10.867Z,8.20
2019-05-22T07:00:50.842Z,8.10
2019-05-22T07:01:50.658Z,10.90
2019-05-22T07:02:50.631Z,7.80
2019-05-22T07:03:50.636Z,7.60
2019-05-22T07:04:50.651Z,8.40
2019-05-22T07:05:50.750Z,10.40
2019-05-22T07:06:50.665Z,6.80
2019-05-22T07:07:50.669Z,8.60
2019-05-22T07:08:50.673Z,8.00
2019-05-22T07:09:50.685Z,9.00
2019-05-22T07:10:50.691Z,8.00
2019-05-22T07:11:50.713Z,7.90
2019-05-22T07:12:51.182Z,8.70
2019-05-22T07:13:50.713Z,6.50
2019-05-22T07:14:50.725Z,8.10
2019-05-22T07:15:50.726Z,7.60
2019-05-22T07:17:50.756Z,10.00
2019-05-22T07:18:50.751Z,9.50
2019-05-22T07:19:50.766Z,8.20
2019-05-22T07:20:50.781Z,6.70
2019-05-22T07:21:50.781Z,7.00
2019-05-22T07:22:50.799Z,8.30
2019-05-22T07:23:50.789Z,10.80
2019-05-22T07:24:50.813Z,8.80
2019-05-22T07:25:50.810Z,9.20
2019-05-22T07:26:50.818Z,9.10
2019-05-22T07:27:50.832Z,9.50
2019-05-22T07:28:50.935Z,12.30
2019-05-22T07:29:50.831Z,10.90
2019-05-22T07:30:50.867Z,9.20
2019-05-22T07:31:50.850Z,11.20
2019-05-22T07:32:50.863Z,11.00
2019-05-22T07:33:50.869Z,8.30
2019-05-22T07:34:50.873Z,9.80
2019-05-22T07:36:08.479Z,10.40
2019-05-22T07:36:50.887Z,10.70
2019-05-22T07:37:50.911Z,10.20
2019-05-22T07:38:50.902Z,7.10
2019-05-22T07:39:50.910Z,8.80
2019-05-22T07:40:51.693Z,9.50
2019-05-22T07:41:50.934Z,10.30
2019-05-22T07:42:50.953Z,8.40
2019-05-22T07:43:50.950Z,7.80
2019-05-22T07:44:50.948Z,9.80
2019-05-22T07:45:50.961Z,7.10
2019-05-22T07:46:50.968Z,8.80
2019-05-22T07:47:50.972Z,11.20
2019-05-22T07:48:50.974Z,9.10
2019-05-22T07:49:50.998Z,9.40
2019-05-22T07:50:51.106Z,9.10
2019-05-22T07:51:58.873Z,11.10
2019-05-22T07:52:51.007Z,8.80
2019-05-22T07:53:51.015Z,8.50
2019-05-22T07:54:51.028Z,10.00
2019-05-22T07:55:51.062Z,8.20
2019-05-22T07:56:51.045Z,8.50
2019-05-22T07:57:51.051Z,7.10
2019-05-22T07:58:51.111Z,6.90
2019-05-22T07:59:51.061Z,7.00
2019-05-22T08:00:51.093Z,9.20
2019-05-22T08:01:51.096Z,8.10
2019-05-22T08:02:51.133Z,7.40
2019-05-22T08:03:51.102Z,9.60
2019-05-22T08:04:51.116Z,11.10
2019-05-22T08:05:51.148Z,8.60
2019-05-22T08:06:51.127Z,8.10
2019-05-22T08:07:51.150Z,9.20
2019-05-22T08:08:51.162Z,9.60
2019-05-22T08:09:51.159Z,8.90
2019-05-22T08:10:51.151Z,10.90
2019-05-22T08:11:51.517Z,8.10
2019-05-22T08:12:51.178Z,11.50
2019-05-22T08:13:51.169Z,8.70
2019-05-22T08:14:51.223Z,9.10
2019-05-22T08:15:51.197Z,8.00
2019-05-22T08:16:51.197Z,9.40
2019-05-22T08:17:53.995Z,11.20
2019-05-22T08:18:51.269Z,8.80
2019-05-22T08:19:51.247Z,7.10
2019-05-22T08:20:51.234Z,8.10
2019-05-22T08:22:04.673Z,6.90
2019-05-22T08:22:51.259Z,6.40
2019-05-22T08:23:51.260Z,7.50
2019-05-22T08:24:51.270Z,8.60
2019-05-22T08:25:51.282Z,7.70
2019-05-22T08:26:54.477Z,7.10
2019-05-22T08:27:51.293Z,6.10
2019-05-22T08:28:51.636Z,6.90
2019-05-22T08:29:51.314Z,8.90
2019-05-22T08:30:51.318Z,5.60
2019-05-22T08:31:51.332Z,6.40
2019-05-22T08:32:51.337Z,7.50
2019-05-22T08:33:51.350Z,10.00
2019-05-22T08:34:51.358Z,7.60
2019-05-22T08:35:51.368Z,9.40
2019-05-22T08:36:51.373Z,5.70
2019-05-22T08:37:51.385Z,10.50
2019-05-22T08:38:51.381Z,7.90
2019-05-22T08:39:51.415Z,10.10
2019-05-22T08:40:51.409Z,7.90
2019-05-22T08:41:51.496Z,8.20
2019-05-22T08:42:51.487Z,7.40
2019-05-22T08:44:13.616Z,8.00
2019-05-22T08:44:51.442Z,6.00
2019-05-22T08:45:51.573Z,6.50
2019-05-22T08:46:51.508Z,6.60
2019-05-22T08:47:51.468Z,8.20
2019-05-22T08:48:51.534Z,10.30
2019-05-22T08:49:51.486Z,8.00
2019-05-22T08:50:51.500Z,8.90
2019-05-22T08:51:51.502Z,7.00
2019-05-22T08:52:51.509Z,9.00
2019-05-22T08:53:51.515Z,10.10
2019-05-22T08:54:51.516Z,9.00
2019-05-22T08:55:51.536Z,11.20
2019-05-22T08:56:51.598Z,12.40
2019-05-22T08:57:51.561Z,10.60
2019-05-22T08:58:51.560Z,12.00
2019-05-22T08:59:51.570Z,10.10
2019-05-22T09:00:51.572Z,8.90
2019-05-22T09:01:51.585Z,8.30
2019-05-22T09:02:51.595Z,9.40
2019-05-22T09:03:51.712Z,9.90
2019-05-22T09:04:51.613Z,10.40
2019-05-22T09:05:52.122Z,7.60
2019-05-22T09:06:51.650Z,9.50
2019-05-22T09:07:51.638Z,9.90
2019-05-22T09:08:51.639Z,9.40
2019-05-22T09:09:51.646Z,10.90
2019-05-22T09:10:51.657Z,8.80
2019-05-22T09:11:51.662Z,10.40
2019-05-22T09:12:51.693Z,9.60
2019-05-22T09:13:51.700Z,6.20
2019-05-22T09:14:51.689Z,6.60
2019-05-22T09:15:51.701Z,8.80
2019-05-22T09:16:51.713Z,5.40
2019-05-22T09:17:51.719Z,7.40
2019-05-22T09:18:51.803Z,6.60
2019-05-22T09:19:51.794Z,6.60
2019-05-22T09:20:51.736Z,8.30
2019-05-22T09:21:51.744Z,6.40
2019-05-22T09:22:51.755Z,6.40
2019-05-22T09:23:51.772Z,9.00
2019-05-22T09:24:51.783Z,9.20
2019-05-22T09:25:51.803Z,8.60
2019-05-22T09:26:51.835Z,7.20
2019-05-22T09:27:51.802Z,7.50
2019-05-22T09:28:51.816Z,6.50
2019-05-22T09:29:51.808Z,7.10
2019-05-22T09:30:51.833Z,7.20
2019-05-22T09:31:51.833Z,9.60
2019-05-22T09:32:51.845Z,6.10
2019-05-22T09:33:51.864Z,6.30
2019-05-22T09:34:51.860Z,9.00
2019-05-22T09:35:51.930Z,7.80
2019-05-22T09:36:51.882Z,6.70
2019-05-22T09:37:51.887Z,7.70
2019-05-22T09:38:52.806Z,7.80
2019-05-22T09:39:51.958Z,5.60
2019-05-22T09:40:51.909Z,5.50
2019-05-22T09:41:51.925Z,6.50
2019-05-22T09:42:51.935Z,4.40
2019-05-22T09:43:52.007Z,7.30
2019-05-22T09:44:52.059Z,8.10
2019-05-22T09:45:51.960Z,5.00
2019-05-22T09:46:51.962Z,6.10
2019-05-22T09:47:51.978Z,7.00
2019-05-22T09:48:51.982Z,4.90
2019-05-22T09:49:51.994Z,5.50
2019-05-22T09:50:52.014Z,7.90
2019-05-22T09:51:52.026Z,6.30
2019-05-22T09:52:57.652Z,8.10
2019-05-22T09:53:52.034Z,7.20
2019-05-22T09:54:52.087Z,7.40
2019-05-22T09:55:52.057Z,5.10
2019-05-22T09:56:52.057Z,6.20
2019-05-22T09:57:52.072Z,4.50
2019-05-22T09:58:52.089Z,5.60
2019-05-22T09:59:52.085Z,4.60
2019-05-22T10:00:52.110Z,8.50
2019-05-22T10:01:52.108Z,7.00
2019-05-22T10:02:52.115Z,5.80
2019-05-22T10:03:52.120Z,5.80
2019-05-22T10:04:52.129Z,5.80
2019-05-22T10:05:52.278Z,5.70
2019-05-22T10:06:52.164Z,4.40
2019-05-22T10:08:00.435Z,5.80
2019-05-22T10:08:52.180Z,7.10
2019-05-22T10:09:52.190Z,8.90
2019-05-22T10:10:53.160Z,6.00
2019-05-22T10:11:52.213Z,8.80
2019-05-22T10:12:52.220Z,5.90
2019-05-22T10:13:52.347Z,5.90
2019-05-22T10:14:52.500Z,7.60
2019-05-22T10:15:52.256Z,4.20
2019-05-22T10:16:52.269Z,5.70
2019-05-22T10:17:52.305Z,6.40
2019-05-22T10:18:53.611Z,5.50
2019-05-22T10:19:52.300Z,6.90
2019-05-22T10:20:52.323Z,4.90
2019-05-22T10:21:52.335Z,6.60
2019-05-22T10:22:52.369Z,7.80
2019-05-22T10:23:52.343Z,7.20
2019-05-22T10:24:52.366Z,7.40
2019-05-22T10:25:52.378Z,7.50
2019-05-22T10:26:52.400Z,6.20
2019-05-22T10:27:52.398Z,5.80
2019-05-22T10:28:52.409Z,5.10
2019-05-22T10:29:52.427Z,5.90
2019-05-22T10:30:52.785Z,6.10
2019-05-22T10:31:52.447Z,9.10
2019-05-22T10:32:52.464Z,7.50
2019-05-22T10:33:52.592Z,6.10
2019-05-22T10:34:52.490Z,4.10
2019-05-22T10:35:52.505Z,9.80
2019-05-22T10:36:52.510Z,5.80
2019-05-22T10:38:52.550Z,6.20
2019-05-22T10:39:52.551Z,6.10
2019-05-22T10:40:52.562Z,6.60
2019-05-22T10:41:52.578Z,5.90
2019-05-22T10:42:52.696Z,5.50
2019-05-22T10:43:52.614Z,6.80
2019-05-22T10:44:52.610Z,4.60
2019-05-22T10:45:52.624Z,5.50
2019-05-22T10:46:52.643Z,5.70
2019-05-22T10:47:52.653Z,4.70
2019-05-22T10:48:52.655Z,6.60
2019-05-22T10:49:52.690Z,6.20
2019-05-22T10:50:52.690Z,5.00
2019-05-22T10:51:52.704Z,5.60
2019-05-22T10:52:54.545Z,5.20
2019-05-22T10:53:52.729Z,4.10
2019-05-22T10:54:55.938Z,4.50
2019-05-22T10:55:52.772Z,6.00
2019-05-22T10:56:52.780Z,3.40
2019-05-22T10:57:52.806Z,2.10
2019-05-22T10:58:52.818Z,3.10
2019-05-22T10:59:52.818Z,2.90
2019-05-22T11:00:52.844Z,3.70
2019-05-22T11:01:52.856Z,2.90
2019-05-22T11:02:52.872Z,3.20
2019-05-22T11:03:52.888Z,3.50
2019-05-22T11:04:52.905Z,2.40
2019-05-22T11:06:06.462Z,3.40
2019-05-22T11:06:52.936Z,4.00
2019-05-22T11:07:52.955Z,2.80
2019-05-22T11:08:52.978Z,4.30
2019-05-22T11:09:52.984Z,3.80
2019-05-22T11:10:53.001Z,5.00
2019-05-22T11:11:53.018Z,5.00
2019-05-22T11:12:53.038Z,4.00
2019-05-22T11:14:01.188Z,2.70
2019-05-22T11:14:53.066Z,3.50
2019-05-22T11:15:53.079Z,3.80
2019-05-22T11:16:53.110Z,2.80
2019-05-22T11:17:53.119Z,3.60
2019-05-22T11:18:53.138Z,3.90
2019-05-22T11:19:53.151Z,5.20
2019-05-22T11:20:53.151Z,4.80
2019-05-22T11:21:56.828Z,3.00
2019-05-22T11:22:53.191Z,2.70
2019-05-22T11:23:53.432Z,3.20
2019-05-22T11:24:53.216Z,4.30
2019-05-22T11:25:53.352Z,4.40
2019-05-22T11:26:53.262Z,4.20
2019-05-22T11:27:53.280Z,3.80
2019-05-22T11:28:53.283Z,4.50
2019-05-22T11:29:53.295Z,3.70
2019-05-22T11:30:53.310Z,3.80
2019-05-22T11:31:53.339Z,2.90
2019-05-22T11:32:53.357Z,3.40
2019-05-22T11:33:53.366Z,2.80
2019-05-22T11:34:53.400Z,3.60
2019-05-22T11:35:53.392Z,4.90
2019-05-22T11:36:53.440Z,3.70
2019-05-22T11:37:53.440Z,5.00
2019-05-22T11:38:53.465Z,4.20
2019-05-22T11:39:53.476Z,4.10
2019-05-22T11:40:53.487Z,2.80
2019-05-22T11:41:53.503Z,2.40
2019-05-22T11:42:53.542Z,4.30
2019-05-22T11:43:53.538Z,4.40
2019-05-22T11:44:53.580Z,3.70
2019-05-22T11:45:53.580Z,2.60
2019-05-22T11:46:53.585Z,3.30
2019-05-22T11:47:53.602Z,4.20
2019-05-22T11:48:53.648Z,3.00
2019-05-22T11:49:53.946Z,3.60
2019-05-22T11:50:53.662Z,3.20
2019-05-22T11:51:53.667Z,3.50
2019-05-22T11:52:53.692Z,2.40
2019-05-22T11:54:07.940Z,2.40
2019-05-22T11:54:53.740Z,3.70
2019-05-22T11:55:53.759Z,5.00
2019-05-22T11:56:53.754Z,4.00
2019-05-22T11:57:53.773Z,3.80
2019-05-22T11:58:53.786Z,3.80
2019-05-22T11:59:53.806Z,3.20
2019-05-22T12:00:53.818Z,4.70
2019-05-22T12:01:53.835Z,3.30
2019-05-22T12:02:53.850Z,5.00
2019-05-22T12:03:53.878Z,4.20
2019-05-22T12:04:53.970Z,2.60
2019-05-22T12:05:53.904Z,3.60
2019-05-22T12:06:54.127Z,3.00
2019-05-22T12:07:53.934Z,2.90
2019-05-22T12:08:53.952Z,4.30
2019-05-22T12:09:53.969Z,4.80
2019-05-22T12:10:53.979Z,4.30
2019-05-22T12:11:54.010Z,3.70
2019-05-22T12:12:54.013Z,5.50
2019-05-22T12:13:54.046Z,5.10
2019-05-22T12:14:54.103Z,5.50
2019-05-22T12:15:54.062Z,5.80
2019-05-22T12:16:54.099Z,3.30
2019-05-22T12:17:54.102Z,5.80
2019-05-22T12:18:54.116Z,4.60
2019-05-22T12:19:54.113Z,3.50
2019-05-22T12:20:54.133Z,4.10
2019-05-22T12:21:54.228Z,4.80
2019-05-22T12:22:54.160Z,5.00
2019-05-22T12:23:54.179Z,5.30
2019-05-22T12:24:54.198Z,2.80
2019-05-22T12:25:54.201Z,5.90
2019-05-22T12:26:54.222Z,4.10
2019-05-22T12:27:54.237Z,5.20
2019-05-22T12:28:54.243Z,5.80
2019-05-22T12:29:54.260Z,3.60
2019-05-22T12:30:54.274Z,4.10
2019-05-22T12:31:54.336Z,4.80
2019-05-22T12:32:54.323Z,5.20
2019-05-22T12:33:54.323Z,2.90
2019-05-22T12:34:54.337Z,3.00
2019-05-22T12:35:54.368Z,4.40
2019-05-22T12:36:54.374Z,2.50
2019-05-22T12:37:54.392Z,2.90
2019-05-22T12:38:54.405Z,2.80
2019-05-22T12:39:54.421Z,3.20
2019-05-22T12:40:54.436Z,3.10
2019-05-22T12:41:54.456Z,2.70
2019-05-22T12:42:54.469Z,3.10
2019-05-22T12:43:54.499Z,2.60
2019-05-22T12:44:54.510Z,2.50
2019-05-22T12:45:54.521Z,3.50
2019-05-22T12:46:54.606Z,2.50
2019-05-22T12:47:54.562Z,2.20
2019-05-22T12:48:54.574Z,5.80
2019-05-22T12:49:54.619Z,6.80
2019-05-22T12:50:54.609Z,2.10
2019-05-22T12:51:54.636Z,2.60
2019-05-22T12:52:54.640Z,3.70
2019-05-22T12:53:54.655Z,2.90
2019-05-22T12:54:54.679Z,3.20
2019-05-22T12:55:54.693Z,3.80
2019-05-22T12:56:54.705Z,3.00
2019-05-22T12:57:54.721Z,2.80
2019-05-22T12:58:54.745Z,3.60
2019-05-22T12:59:54.756Z,2.60
2019-05-22T13:00:54.770Z,3.10
2019-05-22T13:01:54.784Z,5.40
2019-05-22T13:02:54.811Z,4.30
2019-05-22T13:03:54.829Z,2.70
2019-05-22T13:04:54.851Z,5.00
2019-05-22T13:05:54.853Z,2.70
2019-05-22T13:06:54.963Z,3.40
2019-05-22T13:07:54.889Z,3.20
2019-05-22T13:08:54.909Z,3.30
2019-05-22T13:09:54.916Z,4.50
2019-05-22T13:10:54.926Z,4.60